Terminal Aerodrome Forecast
Issued by NWS Shreveport, LA

Home | Current Version | Previous Version | Text Only | Print | Product List | Glossary On
Versions: 1 2 3 4 5 6 7 8 9 10 11 12 13 14 15 16 17 18 19 20 21 22 23 24
731
FTUS44 KSHV 171140
TAFTXK
TAF
KTXK 171140Z 1712/1812 32004KT P6SM -RA OVC060
     FM171800 31005KT P6SM SCT070 BKN100 OVC250
     FM180000 01003KT P6SM OVC060
     FM180300 01003KT P6SM -RA OVC030
     FM180600 01004KT 5SM -SHRA BR OVC015=

USA.gov is the U.S. government's official web portal to all federal, state and local government web resources and services.